sensor_id;sensor_type;location;lat;lon;timestamp;P1;durP1;ratioP1;P2;durP2;ratioP2
20441;SDS011;10380;52.102;20.614;2023-04-25T00:01:55;13.43;;;11.83;;
20441;SDS011;10380;52.102;20.614;2023-04-25T00:04:23;15.17;;;10.97;;
20441;SDS011;10380;52.102;20.614;2023-04-25T00:06:50;14.47;;;10.90;;
20441;SDS011;10380;52.102;20.614;2023-04-25T00:09:18;15.47;;;10.40;;
20441;SDS011;10380;52.102;20.614;2023-04-25T00:11:45;12.77;;;10.73;;
20441;SDS011;10380;52.102;20.614;2023-04-25T00:14:12;12.40;;;10.73;;
20441;SDS011;10380;52.102;20.614;2023-04-25T00:16:39;13.73;;;10.37;;
20441;SDS011;10380;52.102;20.614;2023-04-25T00:19:07;13.03;;;10.17;;
20441;SDS011;10380;52.102;20.614;2023-04-25T00:21:36;11.37;;;9.70;;
20441;SDS011;10380;52.102;20.614;2023-04-25T00:24:07;12.37;;;10.03;;
20441;SDS011;10380;52.102;20.614;2023-04-25T00:26:35;11.03;;;9.43;;
20441;SDS011;10380;52.102;20.614;2023-04-25T00:29:03;13.47;;;9.87;;
20441;SDS011;10380;52.102;20.614;2023-04-25T00:31:30;12.57;;;9.27;;
20441;SDS011;10380;52.102;20.614;2023-04-25T00:33:59;13.67;;;9.37;;
20441;SDS011;10380;52.102;20.614;2023-04-25T00:36:26;12.03;;;9.43;;
20441;SDS011;10380;52.102;20.614;2023-04-25T00:38:54;11.93;;;9.47;;
20441;SDS011;10380;52.102;20.614;2023-04-25T00:41:21;11.33;;;9.27;;
20441;SDS011;10380;52.102;20.614;2023-04-25T00:43:48;10.87;;;8.80;;
20441;SDS011;10380;52.102;20.614;2023-04-25T00:46:16;9.70;;;8.40;;
20441;SDS011;10380;52.102;20.614;2023-04-25T00:48:43;9.43;;;8.43;;
20441;SDS011;10380;52.102;20.614;2023-04-25T00:51:10;12.90;;;10.13;;
20441;SDS011;10380;52.102;20.614;2023-04-25T00:53:42;14.00;;;10.17;;
20441;SDS011;10380;52.102;20.614;2023-04-25T00:56:11;12.57;;;10.03;;
20441;SDS011;10380;52.102;20.614;2023-04-25T00:58:38;12.00;;;10.17;;
20441;SDS011;10380;52.102;20.614;2023-04-25T01:01:08;13.13;;;9.93;;
20441;SDS011;10380;52.102;20.614;2023-04-25T01:03:37;13.07;;;9.67;;
20441;SDS011;10380;52.102;20.614;2023-04-25T01:06:09;11.20;;;8.63;;
20441;SDS011;10380;52.102;20.614;2023-04-25T01:08:38;9.13;;;7.57;;
20441;SDS011;10380;52.102;20.614;2023-04-25T01:11:05;10.50;;;8.30;;
20441;SDS011;10380;52.102;20.614;2023-04-25T01:13:32;10.33;;;8.23;;
20441;SDS011;10380;52.102;20.614;2023-04-25T01:16:00;9.20;;;7.30;;
20441;SDS011;10380;52.102;20.614;2023-04-25T01:18:27;8.87;;;7.83;;
20441;SDS011;10380;52.102;20.614;2023-04-25T01:20:55;9.03;;;7.30;;
20441;SDS011;10380;52.102;20.614;2023-04-25T01:23:23;8.57;;;6.97;;
20441;SDS011;10380;52.102;20.614;2023-04-25T01:25:50;9.03;;;7.37;;
20441;SDS011;10380;52.102;20.614;2023-04-25T01:28:18;9.00;;;7.30;;
20441;SDS011;10380;52.102;20.614;2023-04-25T01:30:45;8.70;;;7.10;;
20441;SDS011;10380;52.102;20.614;2023-04-25T01:33:13;9.57;;;7.37;;
20441;SDS011;10380;52.102;20.614;2023-04-25T01:35:41;10.27;;;7.17;;
20441;SDS011;10380;52.102;20.614;2023-04-25T01:38:09;8.37;;;6.97;;
20441;SDS011;10380;52.102;20.614;2023-04-25T01:40:37;11.60;;;7.80;;
20441;SDS011;10380;52.102;20.614;2023-04-25T01:43:07;8.50;;;7.60;;
20441;SDS011;10380;52.102;20.614;2023-04-25T01:45:37;11.17;;;7.20;;
20441;SDS011;10380;52.102;20.614;2023-04-25T01:48:08;11.17;;;7.73;;
20441;SDS011;10380;52.102;20.614;2023-04-25T01:50:36;8.13;;;6.90;;
20441;SDS011;10380;52.102;20.614;2023-04-25T01:53:04;10.27;;;7.30;;
20441;SDS011;10380;52.102;20.614;2023-04-25T01:55:32;9.87;;;7.60;;
20441;SDS011;10380;52.102;20.614;2023-04-25T01:57:59;11.83;;;8.67;;
20441;SDS011;10380;52.102;20.614;2023-04-25T02:00:28;10.17;;;7.37;;
20441;SDS011;10380;52.102;20.614;2023-04-25T02:02:59;8.57;;;7.53;;
20441;SDS011;10380;52.102;20.614;2023-04-25T02:05:26;10.87;;;6.83;;
20441;SDS011;10380;52.102;20.614;2023-04-25T02:07:53;8.57;;;6.73;;
20441;SDS011;10380;52.102;20.614;2023-04-25T02:10:19;7.37;;;6.60;;
20441;SDS011;10380;52.102;20.614;2023-04-25T02:12:46;9.30;;;7.37;;
20441;SDS011;10380;52.102;20.614;2023-04-25T02:15:13;11.40;;;6.87;;
20441;SDS011;10380;52.102;20.614;2023-04-25T02:17:40;9.07;;;6.70;;
20441;SDS011;10380;52.102;20.614;2023-04-25T02:20:07;8.30;;;7.17;;
20441;SDS011;10380;52.102;20.614;2023-04-25T02:22:34;8.87;;;6.67;;
20441;SDS011;10380;52.102;20.614;2023-04-25T02:25:02;12.77;;;7.60;;
20441;SDS011;10380;52.102;20.614;2023-04-25T02:27:30;8.03;;;6.73;;
20441;SDS011;10380;52.102;20.614;2023-04-25T02:29:57;10.33;;;6.97;;
20441;SDS011;10380;52.102;20.614;2023-04-25T02:32:25;7.00;;;6.13;;
20441;SDS011;10380;52.102;20.614;2023-04-25T02:34:53;8.67;;;6.23;;
20441;SDS011;10380;52.102;20.614;2023-04-25T02:37:20;9.27;;;7.00;;
20441;SDS011;10380;52.102;20.614;2023-04-25T02:39:47;7.87;;;6.40;;
20441;SDS011;10380;52.102;20.614;2023-04-25T02:42:14;6.87;;;5.70;;
20441;SDS011;10380;52.102;20.614;2023-04-25T02:44:40;7.10;;;5.57;;
20441;SDS011;10380;52.102;20.614;2023-04-25T02:47:07;8.10;;;5.63;;
20441;SDS011;10380;52.102;20.614;2023-04-25T02:49:34;6.50;;;5.90;;
20441;SDS011;10380;52.102;20.614;2023-04-25T02:52:01;7.73;;;5.77;;
20441;SDS011;10380;52.102;20.614;2023-04-25T02:54:28;8.77;;;6.00;;
20441;SDS011;10380;52.102;20.614;2023-04-25T02:56:56;6.57;;;5.37;;
20441;SDS011;10380;52.102;20.614;2023-04-25T02:59:23;6.30;;;4.63;;
20441;SDS011;10380;52.102;20.614;2023-04-25T03:01:50;7.20;;;5.40;;
20441;SDS011;10380;52.102;20.614;2023-04-25T03:04:17;5.63;;;4.93;;
20441;SDS011;10380;52.102;20.614;2023-04-25T03:06:45;5.37;;;4.50;;
20441;SDS011;10380;52.102;20.614;2023-04-25T03:09:12;7.57;;;5.33;;
20441;SDS011;10380;52.102;20.614;2023-04-25T03:11:39;5.57;;;4.90;;
20441;SDS011;10380;52.102;20.614;2023-04-25T03:14:06;5.30;;;4.80;;
20441;SDS011;10380;52.102;20.614;2023-04-25T03:16:33;6.80;;;5.13;;
20441;SDS011;10380;52.102;20.614;2023-04-25T03:19:00;8.13;;;5.40;;
20441;SDS011;10380;52.102;20.614;2023-04-25T03:21:28;5.70;;;5.10;;
20441;SDS011;10380;52.102;20.614;2023-04-25T03:23:55;6.37;;;4.60;;
20441;SDS011;10380;52.102;20.614;2023-04-25T03:26:22;6.50;;;5.10;;
20441;SDS011;10380;52.102;20.614;2023-04-25T03:28:49;7.43;;;5.80;;
20441;SDS011;10380;52.102;20.614;2023-04-25T03:31:17;5.50;;;4.97;;
20441;SDS011;10380;52.102;20.614;2023-04-25T03:33:44;6.00;;;5.33;;
20441;SDS011;10380;52.102;20.614;2023-04-25T03:36:11;7.23;;;5.57;;
20441;SDS011;10380;52.102;20.614;2023-04-25T03:38:38;5.73;;;4.97;;
20441;SDS011;10380;52.102;20.614;2023-04-25T03:41:07;9.83;;;5.73;;
20441;SDS011;10380;52.102;20.614;2023-04-25T03:43:34;7.97;;;5.40;;
20441;SDS011;10380;52.102;20.614;2023-04-25T03:46:01;7.27;;;5.23;;
20441;SDS011;10380;52.102;20.614;2023-04-25T03:48:28;6.87;;;5.77;;
20441;SDS011;10380;52.102;20.614;2023-04-25T03:50:55;8.03;;;5.77;;
20441;SDS011;10380;52.102;20.614;2023-04-25T03:53:22;7.80;;;5.83;;
20441;SDS011;10380;52.102;20.614;2023-04-25T03:55:49;8.30;;;5.97;;
20441;SDS011;10380;52.102;20.614;2023-04-25T03:58:16;8.90;;;6.80;;
20441;SDS011;10380;52.102;20.614;2023-04-25T04:00:43;7.37;;;6.03;;
20441;SDS011;10380;52.102;20.614;2023-04-25T04:03:09;7.83;;;6.27;;
20441;SDS011;10380;52.102;20.614;2023-04-25T04:05:37;6.97;;;6.13;;
20441;SDS011;10380;52.102;20.614;2023-04-25T04:08:06;7.33;;;6.13;;
20441;SDS011;10380;52.102;20.614;2023-04-25T04:10:33;8.83;;;7.47;;
20441;SDS011;10380;52.102;20.614;2023-04-25T04:13:00;9.57;;;7.47;;
20441;SDS011;10380;52.102;20.614;2023-04-25T04:15:29;9.30;;;7.00;;
20441;SDS011;10380;52.102;20.614;2023-04-25T04:17:56;9.93;;;7.03;;
20441;SDS011;10380;52.102;20.614;2023-04-25T04:20:22;8.87;;;7.07;;
20441;SDS011;10380;52.102;20.614;2023-04-25T04:22:49;9.37;;;7.47;;
20441;SDS011;10380;52.102;20.614;2023-04-25T04:25:16;8.40;;;7.27;;
20441;SDS011;10380;52.102;20.614;2023-04-25T04:27:44;9.17;;;8.00;;
20441;SDS011;10380;52.102;20.614;2023-04-25T04:30:12;7.67;;;6.50;;
20441;SDS011;10380;52.102;20.614;2023-04-25T04:32:39;9.37;;;7.30;;
20441;SDS011;10380;52.102;20.614;2023-04-25T04:35:06;7.87;;;6.87;;
20441;SDS011;10380;52.102;20.614;2023-04-25T04:37:36;10.77;;;7.60;;
20441;SDS011;10380;52.102;20.614;2023-04-25T04:40:03;9.10;;;7.10;;
20441;SDS011;10380;52.102;20.614;2023-04-25T04:42:31;9.20;;;7.90;;
20441;SDS011;10380;52.102;20.614;2023-04-25T04:44:58;8.87;;;7.10;;
20441;SDS011;10380;52.102;20.614;2023-04-25T04:47:28;8.33;;;7.53;;
20441;SDS011;10380;52.102;20.614;2023-04-25T04:49:57;11.90;;;8.07;;
20441;SDS011;10380;52.102;20.614;2023-04-25T04:52:24;9.77;;;7.60;;
20441;SDS011;10380;52.102;20.614;2023-04-25T04:54:51;8.47;;;7.37;;
20441;SDS011;10380;52.102;20.614;2023-04-25T04:57:18;10.60;;;7.30;;
20441;SDS011;10380;52.102;20.614;2023-04-25T04:59:44;14.17;;;8.80;;
20441;SDS011;10380;52.102;20.614;2023-04-25T05:02:12;10.03;;;7.63;;
20441;SDS011;10380;52.102;20.614;2023-04-25T05:04:39;11.00;;;7.37;;
20441;SDS011;10380;52.102;20.614;2023-04-25T05:07:06;10.13;;;8.50;;
20441;SDS011;10380;52.102;20.614;2023-04-25T05:09:33;9.50;;;7.00;;
20441;SDS011;10380;52.102;20.614;2023-04-25T05:12:00;8.87;;;7.03;;
20441;SDS011;10380;52.102;20.614;2023-04-25T05:14:27;10.10;;;8.43;;
20441;SDS011;10380;52.102;20.614;2023-04-25T05:16:54;10.33;;;8.60;;
20441;SDS011;10380;52.102;20.614;2023-04-25T05:19:21;8.83;;;7.43;;
20441;SDS011;10380;52.102;20.614;2023-04-25T05:21:48;9.90;;;8.20;;
20441;SDS011;10380;52.102;20.614;2023-04-25T05:24:15;11.83;;;8.60;;
20441;SDS011;10380;52.102;20.614;2023-04-25T05:26:42;8.40;;;7.50;;
20441;SDS011;10380;52.102;20.614;2023-04-25T05:29:09;10.67;;;8.53;;
20441;SDS011;10380;52.102;20.614;2023-04-25T05:31:36;11.67;;;8.40;;
20441;SDS011;10380;52.102;20.614;2023-04-25T05:34:03;10.37;;;7.63;;
20441;SDS011;10380;52.102;20.614;2023-04-25T05:36:30;9.60;;;8.10;;
20441;SDS011;10380;52.102;20.614;2023-04-25T05:38:58;10.70;;;7.80;;
20441;SDS011;10380;52.102;20.614;2023-04-25T05:41:25;9.93;;;7.60;;
20441;SDS011;10380;52.102;20.614;2023-04-25T05:43:52;9.67;;;8.03;;
20441;SDS011;10380;52.102;20.614;2023-04-25T05:46:22;9.53;;;7.40;;
20441;SDS011;10380;52.102;20.614;2023-04-25T05:48:49;8.57;;;7.00;;
20441;SDS011;10380;52.102;20.614;2023-04-25T05:51:16;7.70;;;6.63;;
20441;SDS011;10380;52.102;20.614;2023-04-25T05:53:44;8.53;;;5.23;;
20441;SDS011;10380;52.102;20.614;2023-04-25T05:56:11;7.10;;;6.33;;
20441;SDS011;10380;52.102;20.614;2023-04-25T05:58:38;8.13;;;6.57;;
20441;SDS011;10380;52.102;20.614;2023-04-25T06:01:04;8.40;;;7.47;;
20441;SDS011;10380;52.102;20.614;2023-04-25T06:03:32;12.20;;;8.03;;
20441;SDS011;10380;52.102;20.614;2023-04-25T06:05:59;8.37;;;7.37;;
20441;SDS011;10380;52.102;20.614;2023-04-25T06:08:26;10.30;;;8.77;;
20441;SDS011;10380;52.102;20.614;2023-04-25T06:10:53;11.03;;;7.90;;
20441;SDS011;10380;52.102;20.614;2023-04-25T06:13:20;12.07;;;8.43;;
20441;SDS011;10380;52.102;20.614;2023-04-25T06:15:47;8.20;;;6.27;;
20441;SDS011;10380;52.102;20.614;2023-04-25T06:18:14;7.80;;;6.47;;
20441;SDS011;10380;52.102;20.614;2023-04-25T06:20:41;9.50;;;7.60;;
20441;SDS011;10380;52.102;20.614;2023-04-25T06:23:08;8.43;;;6.67;;
20441;SDS011;10380;52.102;20.614;2023-04-25T06:25:34;7.13;;;6.37;;
20441;SDS011;10380;52.102;20.614;2023-04-25T06:28:01;10.30;;;6.30;;
20441;SDS011;10380;52.102;20.614;2023-04-25T06:30:28;5.77;;;5.20;;
20441;SDS011;10380;52.102;20.614;2023-04-25T06:32:55;10.17;;;6.50;;
20441;SDS011;10380;52.102;20.614;2023-04-25T06:35:22;6.13;;;5.50;;
20441;SDS011;10380;52.102;20.614;2023-04-25T06:37:49;7.27;;;6.33;;
20441;SDS011;10380;52.102;20.614;2023-04-25T06:40:16;7.27;;;5.77;;
20441;SDS011;10380;52.102;20.614;2023-04-25T06:42:43;11.90;;;6.33;;
20441;SDS011;10380;52.102;20.614;2023-04-25T06:45:10;6.77;;;5.60;;
20441;SDS011;10380;52.102;20.614;2023-04-25T06:47:37;8.53;;;6.17;;
20441;SDS011;10380;52.102;20.614;2023-04-25T06:50:04;7.00;;;6.30;;
20441;SDS011;10380;52.102;20.614;2023-04-25T06:52:32;7.03;;;6.33;;
20441;SDS011;10380;52.102;20.614;2023-04-25T06:55:01;9.37;;;5.60;;
20441;SDS011;10380;52.102;20.614;2023-04-25T06:57:28;6.13;;;5.27;;
20441;SDS011;10380;52.102;20.614;2023-04-25T06:59:55;6.83;;;4.80;;
20441;SDS011;10380;52.102;20.614;2023-04-25T07:02:22;5.50;;;3.80;;
20441;SDS011;10380;52.102;20.614;2023-04-25T07:04:49;4.70;;;4.20;;
20441;SDS011;10380;52.102;20.614;2023-04-25T07:07:16;4.30;;;3.90;;
20441;SDS011;10380;52.102;20.614;2023-04-25T07:09:43;5.30;;;4.27;;
20441;SDS011;10380;52.102;20.614;2023-04-25T07:12:10;4.10;;;3.70;;
20441;SDS011;10380;52.102;20.614;2023-04-25T07:14:36;4.73;;;3.90;;
20441;SDS011;10380;52.102;20.614;2023-04-25T07:17:03;4.37;;;3.47;;
20441;SDS011;10380;52.102;20.614;2023-04-25T07:19:32;4.53;;;3.73;;
20441;SDS011;10380;52.102;20.614;2023-04-25T07:21:59;4.10;;;3.60;;
20441;SDS011;10380;52.102;20.614;2023-04-25T07:24:27;7.33;;;4.10;;
20441;SDS011;10380;52.102;20.614;2023-04-25T07:26:54;4.00;;;3.60;;
20441;SDS011;10380;52.102;20.614;2023-04-25T07:29:21;5.73;;;3.83;;
20441;SDS011;10380;52.102;20.614;2023-04-25T07:31:48;5.50;;;3.77;;
20441;SDS011;10380;52.102;20.614;2023-04-25T07:34:15;3.87;;;3.37;;
20441;SDS011;10380;52.102;20.614;2023-04-25T07:36:42;3.07;;;2.80;;
20441;SDS011;10380;52.102;20.614;2023-04-25T07:39:09;3.07;;;2.50;;
20441;SDS011;10380;52.102;20.614;2023-04-25T07:41:36;4.83;;;3.47;;
20441;SDS011;10380;52.102;20.614;2023-04-25T07:44:03;4.70;;;3.67;;
20441;SDS011;10380;52.102;20.614;2023-04-25T07:46:30;4.10;;;3.70;;
20441;SDS011;10380;52.102;20.614;2023-04-25T07:48:57;3.33;;;3.03;;
20441;SDS011;10380;52.102;20.614;2023-04-25T07:51:24;5.20;;;3.70;;
20441;SDS011;10380;52.102;20.614;2023-04-25T07:53:52;4.07;;;3.40;;
20441;SDS011;10380;52.102;20.614;2023-04-25T07:56:18;3.03;;;2.80;;
20441;SDS011;10380;52.102;20.614;2023-04-25T07:58:45;4.23;;;3.83;;
20441;SDS011;10380;52.102;20.614;2023-04-25T08:01:12;3.47;;;3.17;;
20441;SDS011;10380;52.102;20.614;2023-04-25T08:03:39;2.57;;;2.37;;
20441;SDS011;10380;52.102;20.614;2023-04-25T08:06:06;3.67;;;3.37;;
20441;SDS011;10380;52.102;20.614;2023-04-25T08:08:34;6.47;;;4.13;;
20441;SDS011;10380;52.102;20.614;2023-04-25T08:11:01;4.57;;;3.83;;
20441;SDS011;10380;52.102;20.614;2023-04-25T08:13:27;7.30;;;4.27;;
20441;SDS011;10380;52.102;20.614;2023-04-25T08:15:54;6.60;;;4.83;;
20441;SDS011;10380;52.102;20.614;2023-04-25T08:18:21;5.47;;;4.23;;
20441;SDS011;10380;52.102;20.614;2023-04-25T08:20:48;4.93;;;4.43;;
20441;SDS011;10380;52.102;20.614;2023-04-25T08:23:15;6.90;;;4.13;;
20441;SDS011;10380;52.102;20.614;2023-04-25T08:25:41;4.30;;;3.90;;
20441;SDS011;10380;52.102;20.614;2023-04-25T08:28:08;4.70;;;4.30;;
20441;SDS011;10380;52.102;20.614;2023-04-25T08:30:36;5.47;;;4.90;;
20441;SDS011;10380;52.102;20.614;2023-04-25T08:33:03;5.40;;;4.90;;
20441;SDS011;10380;52.102;20.614;2023-04-25T08:35:30;5.13;;;4.63;;
20441;SDS011;10380;52.102;20.614;2023-04-25T08:37:56;6.80;;;6.17;;
20441;SDS011;10380;52.102;20.614;2023-04-25T08:40:23;6.53;;;5.90;;
20441;SDS011;10380;52.102;20.614;2023-04-25T08:42:59;6.70;;;5.23;;
20441;SDS011;10380;52.102;20.614;2023-04-25T08:45:29;6.30;;;5.10;;
20441;SDS011;10380;52.102;20.614;2023-04-25T08:47:58;4.63;;;4.23;;
20441;SDS011;10380;52.102;20.614;2023-04-25T08:50:26;4.53;;;4.13;;
20441;SDS011;10380;52.102;20.614;2023-04-25T08:52:54;6.77;;;4.73;;
20441;SDS011;10380;52.102;20.614;2023-04-25T08:55:23;6.50;;;5.87;;
20441;SDS011;10380;52.102;20.614;2023-04-25T08:57:50;5.80;;;5.20;;
20441;SDS011;10380;52.102;20.614;2023-04-25T09:00:18;7.30;;;6.60;;
20441;SDS011;10380;52.102;20.614;2023-04-25T09:02:45;8.53;;;6.33;;
20441;SDS011;10380;52.102;20.614;2023-04-25T09:05:13;7.47;;;6.10;;
20441;SDS011;10380;52.102;20.614;2023-04-25T09:07:40;7.17;;;6.33;;
20441;SDS011;10380;52.102;20.614;2023-04-25T09:10:07;10.03;;;6.53;;
20441;SDS011;10380;52.102;20.614;2023-04-25T09:12:34;7.77;;;6.97;;
20441;SDS011;10380;52.102;20.614;2023-04-25T09:17:30;10.40;;;7.20;;
20441;SDS011;10380;52.102;20.614;2023-04-25T09:20:10;7.30;;;6.63;;
20441;SDS011;10380;52.102;20.614;2023-04-25T09:22:39;7.50;;;6.77;;
20441;SDS011;10380;52.102;20.614;2023-04-25T09:25:12;7.50;;;6.20;;
20441;SDS011;10380;52.102;20.614;2023-04-25T09:27:50;5.17;;;4.67;;
20441;SDS011;10380;52.102;20.614;2023-04-25T09:30:28;10.17;;;6.97;;
20441;SDS011;10380;52.102;20.614;2023-04-25T09:32:57;6.30;;;5.70;;
20441;SDS011;10380;52.102;20.614;2023-04-25T09:35:30;7.07;;;6.37;;
20441;SDS011;10380;52.102;20.614;2023-04-25T09:38:06;6.53;;;5.93;;
20441;SDS011;10380;52.102;20.614;2023-04-25T09:40:44;7.30;;;6.70;;
20441;SDS011;10380;52.102;20.614;2023-04-25T09:43:18;7.37;;;6.43;;
20441;SDS011;10380;52.102;20.614;2023-04-25T09:45:50;7.83;;;6.20;;
20441;SDS011;10380;52.102;20.614;2023-04-25T09:48:20;5.70;;;5.07;;
20441;SDS011;10380;52.102;20.614;2023-04-25T09:53:35;5.83;;;5.33;;
20441;SDS011;10380;52.102;20.614;2023-04-25T09:56:07;5.40;;;4.57;;
20441;SDS011;10380;52.102;20.614;2023-04-25T09:58:35;5.20;;;3.97;;
20441;SDS011;10380;52.102;20.614;2023-04-25T10:01:08;5.23;;;4.07;;
20441;SDS011;10380;52.102;20.614;2023-04-25T10:03:37;5.07;;;3.87;;
20441;SDS011;10380;52.102;20.614;2023-04-25T10:06:11;3.50;;;3.07;;
20441;SDS011;10380;52.102;20.614;2023-04-25T10:08:40;6.00;;;4.30;;
20441;SDS011;10380;52.102;20.614;2023-04-25T10:11:08;3.97;;;3.53;;
20441;SDS011;10380;52.102;20.614;2023-04-25T10:13:35;3.57;;;3.13;;
20441;SDS011;10380;52.102;20.614;2023-04-25T10:16:03;3.33;;;2.60;;
20441;SDS011;10380;52.102;20.614;2023-04-25T10:18:31;3.50;;;3.10;;
20441;SDS011;10380;52.102;20.614;2023-04-25T10:21:02;4.37;;;3.60;;
20441;SDS011;10380;52.102;20.614;2023-04-25T10:23:30;3.93;;;3.53;;
20441;SDS011;10380;52.102;20.614;2023-04-25T10:25:59;3.10;;;2.80;;
20441;SDS011;10380;52.102;20.614;2023-04-25T10:28:26;3.70;;;3.40;;
20441;SDS011;10380;52.102;20.614;2023-04-25T10:31:04;3.47;;;3.17;;
20441;SDS011;10380;52.102;20.614;2023-04-25T10:33:39;4.13;;;3.37;;
20441;SDS011;10380;52.102;20.614;2023-04-25T10:36:09;4.60;;;3.73;;
20441;SDS011;10380;52.102;20.614;2023-04-25T10:38:39;4.33;;;3.87;;
20441;SDS011;10380;52.102;20.614;2023-04-25T10:41:09;4.07;;;3.57;;
20441;SDS011;10380;52.102;20.614;2023-04-25T10:43:41;4.73;;;3.60;;
20441;SDS011;10380;52.102;20.614;2023-04-25T10:46:22;4.20;;;3.70;;
20441;SDS011;10380;52.102;20.614;2023-04-25T10:48:50;4.93;;;4.10;;
20441;SDS011;10380;52.102;20.614;2023-04-25T10:51:29;4.57;;;3.57;;
20441;SDS011;10380;52.102;20.614;2023-04-25T10:54:18;3.93;;;3.53;;
20441;SDS011;10380;52.102;20.614;2023-04-25T10:56:48;4.87;;;3.90;;
20441;SDS011;10380;52.102;20.614;2023-04-25T10:59:16;4.03;;;3.43;;
20441;SDS011;10380;52.102;20.614;2023-04-25T11:01:48;5.37;;;3.97;;
20441;SDS011;10380;52.102;20.614;2023-04-25T11:09:38;3.50;;;3.20;;
20441;SDS011;10380;52.102;20.614;2023-04-25T11:12:09;6.50;;;4.53;;
20441;SDS011;10380;52.102;20.614;2023-04-25T11:14:38;5.13;;;3.97;;
20441;SDS011;10380;52.102;20.614;2023-04-25T11:17:06;4.47;;;3.83;;
20441;SDS011;10380;52.102;20.614;2023-04-25T11:19:33;6.17;;;3.33;;
20441;SDS011;10380;52.102;20.614;2023-04-25T11:22:00;3.20;;;2.90;;
20441;SDS011;10380;52.102;20.614;2023-04-25T11:24:29;5.40;;;3.33;;
20441;SDS011;10380;52.102;20.614;2023-04-25T11:27:01;3.90;;;3.20;;
20441;SDS011;10380;52.102;20.614;2023-04-25T11:29:32;4.00;;;3.60;;
20441;SDS011;10380;52.102;20.614;2023-04-25T11:32:00;3.97;;;3.47;;
20441;SDS011;10380;52.102;20.614;2023-04-25T11:34:28;4.07;;;3.67;;
20441;SDS011;10380;52.102;20.614;2023-04-25T11:36:57;3.33;;;3.10;;
20441;SDS011;10380;52.102;20.614;2023-04-25T11:39:25;5.30;;;4.03;;
20441;SDS011;10380;52.102;20.614;2023-04-25T11:41:52;3.57;;;3.27;;
20441;SDS011;10380;52.102;20.614;2023-04-25T11:44:20;3.73;;;2.87;;
20441;SDS011;10380;52.102;20.614;2023-04-25T11:46:47;4.77;;;4.23;;
20441;SDS011;10380;52.102;20.614;2023-04-25T11:49:14;4.93;;;3.80;;
20441;SDS011;10380;52.102;20.614;2023-04-25T11:51:42;5.50;;;4.17;;
20441;SDS011;10380;52.102;20.614;2023-04-25T11:54:10;4.97;;;4.20;;
20441;SDS011;10380;52.102;20.614;2023-04-25T11:56:41;4.77;;;3.97;;
20441;SDS011;10380;52.102;20.614;2023-04-25T11:59:12;4.37;;;3.90;;
20441;SDS011;10380;52.102;20.614;2023-04-25T12:01:40;5.17;;;4.00;;
20441;SDS011;10380;52.102;20.614;2023-04-25T12:04:11;6.07;;;3.77;;
20441;SDS011;10380;52.102;20.614;2023-04-25T12:06:50;4.00;;;3.60;;
20441;SDS011;10380;52.102;20.614;2023-04-25T12:09:27;4.37;;;3.47;;
20441;SDS011;10380;52.102;20.614;2023-04-25T12:11:58;4.63;;;3.73;;
20441;SDS011;10380;52.102;20.614;2023-04-25T12:14:30;6.10;;;4.93;;
20441;SDS011;10380;52.102;20.614;2023-04-25T12:16:59;5.77;;;5.17;;
20441;SDS011;10380;52.102;20.614;2023-04-25T12:19:35;4.87;;;4.33;;
20441;SDS011;10380;52.102;20.614;2023-04-25T12:22:03;6.20;;;4.33;;
20441;SDS011;10380;52.102;20.614;2023-04-25T12:24:45;5.53;;;3.50;;
20441;SDS011;10380;52.102;20.614;2023-04-25T12:27:14;6.57;;;3.83;;
20441;SDS011;10380;52.102;20.614;2023-04-25T12:29:55;6.67;;;4.60;;
20441;SDS011;10380;52.102;20.614;2023-04-25T12:32:22;5.13;;;4.67;;
20441;SDS011;10380;52.102;20.614;2023-04-25T12:34:50;5.40;;;4.90;;
20441;SDS011;10380;52.102;20.614;2023-04-25T12:37:17;5.43;;;4.90;;
20441;SDS011;10380;52.102;20.614;2023-04-25T12:39:44;9.90;;;6.40;;
20441;SDS011;10380;52.102;20.614;2023-04-25T12:42:11;6.63;;;5.30;;
20441;SDS011;10380;52.102;20.614;2023-04-25T12:44:39;8.00;;;6.00;;
20441;SDS011;10380;52.102;20.614;2023-04-25T12:47:06;6.97;;;5.43;;
20441;SDS011;10380;52.102;20.614;2023-04-25T12:49:33;6.20;;;5.60;;
20441;SDS011;10380;52.102;20.614;2023-04-25T12:52:00;5.37;;;4.50;;
20441;SDS011;10380;52.102;20.614;2023-04-25T12:54:27;5.40;;;4.37;;
20441;SDS011;10380;52.102;20.614;2023-04-25T12:56:54;5.87;;;4.40;;
20441;SDS011;10380;52.102;20.614;2023-04-25T12:59:21;6.00;;;4.77;;
20441;SDS011;10380;52.102;20.614;2023-04-25T13:01:48;6.90;;;4.90;;
20441;SDS011;10380;52.102;20.614;2023-04-25T13:04:17;5.43;;;4.93;;
20441;SDS011;10380;52.102;20.614;2023-04-25T13:06:48;7.93;;;5.27;;
20441;SDS011;10380;52.102;20.614;2023-04-25T13:09:16;6.57;;;4.73;;
20441;SDS011;10380;52.102;20.614;2023-04-25T13:11:43;5.47;;;4.53;;
20441;SDS011;10380;52.102;20.614;2023-04-25T13:14:11;6.90;;;5.43;;
20441;SDS011;10380;52.102;20.614;2023-04-25T13:16:40;5.67;;;4.93;;
20441;SDS011;10380;52.102;20.614;2023-04-25T13:19:07;4.97;;;4.47;;
20441;SDS011;10380;52.102;20.614;2023-04-25T13:21:37;6.27;;;4.63;;
20441;SDS011;10380;52.102;20.614;2023-04-25T13:24:04;6.77;;;5.53;;
20441;SDS011;10380;52.102;20.614;2023-04-25T13:26:32;5.97;;;5.37;;
20441;SDS011;10380;52.102;20.614;2023-04-25T13:28:59;6.30;;;5.27;;
20441;SDS011;10380;52.102;20.614;2023-04-25T13:31:26;6.33;;;4.87;;
20441;SDS011;10380;52.102;20.614;2023-04-25T13:33:54;5.47;;;4.60;;
20441;SDS011;10380;52.102;20.614;2023-04-25T13:36:21;7.10;;;6.30;;
20441;SDS011;10380;52.102;20.614;2023-04-25T13:38:49;7.10;;;5.70;;
20441;SDS011;10380;52.102;20.614;2023-04-25T13:41:15;13.80;;;10.13;;
20441;SDS011;10380;52.102;20.614;2023-04-25T13:43:45;10.90;;;9.13;;
20441;SDS011;10380;52.102;20.614;2023-04-25T13:46:14;8.00;;;6.47;;
20441;SDS011;10380;52.102;20.614;2023-04-25T13:49:01;8.57;;;5.47;;
20441;SDS011;10380;52.102;20.614;2023-04-25T13:51:38;9.60;;;6.00;;
20441;SDS011;10380;52.102;20.614;2023-04-25T13:54:06;6.37;;;5.43;;
20441;SDS011;10380;52.102;20.614;2023-04-25T13:56:34;5.77;;;5.07;;
20441;SDS011;10380;52.102;20.614;2023-04-25T13:59:01;7.63;;;6.60;;
20441;SDS011;10380;52.102;20.614;2023-04-25T14:01:28;6.60;;;5.90;;
20441;SDS011;10380;52.102;20.614;2023-04-25T14:03:57;8.03;;;6.23;;
20441;SDS011;10380;52.102;20.614;2023-04-25T14:06:24;7.37;;;5.47;;
20441;SDS011;10380;52.102;20.614;2023-04-25T14:08:51;7.43;;;4.77;;
20441;SDS011;10380;52.102;20.614;2023-04-25T14:11:19;6.57;;;5.20;;
20441;SDS011;10380;52.102;20.614;2023-04-25T14:13:46;5.93;;;4.13;;
20441;SDS011;10380;52.102;20.614;2023-04-25T14:16:15;4.43;;;4.00;;
20441;SDS011;10380;52.102;20.614;2023-04-25T14:18:43;4.60;;;3.70;;
20441;SDS011;10380;52.102;20.614;2023-04-25T14:21:10;5.57;;;3.73;;
20441;SDS011;10380;52.102;20.614;2023-04-25T14:23:36;5.43;;;4.93;;
20441;SDS011;10380;52.102;20.614;2023-04-25T14:26:03;4.83;;;4.20;;
20441;SDS011;10380;52.102;20.614;2023-04-25T14:28:31;6.00;;;4.83;;
20441;SDS011;10380;52.102;20.614;2023-04-25T14:30:58;7.10;;;5.57;;
20441;SDS011;10380;52.102;20.614;2023-04-25T14:33:26;12.63;;;8.00;;
20441;SDS011;10380;52.102;20.614;2023-04-25T14:35:53;11.53;;;7.17;;
20441;SDS011;10380;52.102;20.614;2023-04-25T14:38:22;9.07;;;7.80;;
20441;SDS011;10380;52.102;20.614;2023-04-25T14:40:52;6.53;;;5.93;;
20441;SDS011;10380;52.102;20.614;2023-04-25T14:43:20;10.87;;;6.87;;
20441;SDS011;10380;52.102;20.614;2023-04-25T14:45:47;7.10;;;4.83;;
20441;SDS011;10380;52.102;20.614;2023-04-25T14:48:14;7.73;;;6.17;;